createdAt,value
2019-03-19T00:00:03.848Z,99.99
2019-03-19T00:01:03.825Z,99.99
2019-03-19T00:02:03.663Z,99.99
2019-03-19T00:03:03.581Z,99.99
2019-03-19T00:04:10.533Z,99.99
2019-03-19T00:05:03.398Z,99.99
2019-03-19T00:06:03.343Z,99.99
2019-03-19T00:07:03.220Z,99.99
2019-03-19T00:08:03.161Z,99.99
2019-03-19T00:09:03.060Z,99.99
2019-03-19T00:10:03.987Z,99.99
2019-03-19T00:11:02.869Z,99.99
2019-03-19T00:12:02.872Z,99.99
2019-03-19T00:13:02.693Z,99.99
2019-03-19T00:14:02.617Z,99.99
2019-03-19T00:15:02.511Z,99.99
2019-03-19T00:16:02.488Z,99.99
2019-03-19T00:17:02.348Z,99.99
2019-03-19T00:18:02.274Z,99.99
2019-03-19T00:19:02.173Z,99.99
2019-03-19T00:20:02.111Z,99.99
2019-03-19T00:21:02.024Z,99.99
2019-03-19T00:22:01.899Z,99.99
2019-03-19T00:23:01.805Z,99.99
2019-03-19T00:24:01.733Z,99.99
2019-03-19T00:25:01.759Z,99.99
2019-03-19T00:26:01.541Z,99.99
2019-03-19T00:27:01.449Z,99.99
2019-03-19T00:28:01.447Z,99.99
2019-03-19T00:29:01.292Z,99.99
2019-03-19T00:30:01.259Z,99.99
2019-03-19T00:31:01.104Z,99.99
2019-03-19T00:32:02.116Z,99.99
2019-03-19T00:33:00.924Z,99.99
2019-03-19T00:34:00.846Z,99.99
2019-03-19T00:35:00.784Z,99.99
2019-03-19T00:36:00.655Z,99.99
2019-03-19T00:37:00.576Z,99.99
2019-03-19T00:38:00.597Z,99.99
2019-03-19T00:39:00.402Z,99.99
2019-03-19T00:40:00.353Z,99.99
2019-03-19T00:41:00.311Z,99.99
2019-03-19T00:42:00.128Z,99.99
2019-03-19T00:43:01.141Z,99.99
2019-03-19T00:43:59.956Z,99.99
2019-03-19T00:44:59.976Z,99.99
2019-03-19T00:45:59.770Z,99.99
2019-03-19T00:46:59.736Z,99.99
2019-03-19T00:47:59.632Z,99.99
2019-03-19T00:48:59.503Z,99.99
2019-03-19T00:49:59.478Z,99.99
2019-03-19T00:50:59.324Z,99.99
2019-03-19T00:51:59.243Z,99.99
2019-03-19T00:52:59.268Z,99.99
2019-03-19T00:53:59.061Z,99.99
2019-03-19T00:54:58.981Z,99.99
2019-03-19T00:55:58.978Z,99.99
2019-03-19T00:56:58.793Z,99.99
2019-03-19T00:57:58.740Z,99.99
2019-03-19T00:58:58.695Z,99.99
2019-03-19T00:59:58.540Z,99.99
2019-03-19T01:00:58.440Z,99.99
2019-03-19T01:01:58.402Z,99.99
2019-03-19T01:02:58.268Z,99.99
2019-03-19T01:03:58.175Z,99.99
2019-03-19T01:04:58.101Z,99.99
2019-03-19T01:05:58.020Z,99.99
2019-03-19T01:06:57.912Z,99.99
2019-03-19T01:07:57.821Z,99.99
2019-03-19T01:08:57.729Z,99.99
2019-03-19T01:09:57.674Z,99.99
2019-03-19T01:10:57.557Z,99.99
2019-03-19T01:11:57.466Z,99.99
2019-03-19T01:12:57.456Z,99.99
2019-03-19T01:13:57.291Z,99.99
2019-03-19T01:14:57.213Z,99.99
2019-03-19T01:15:57.170Z,99.99
2019-03-19T01:16:57.019Z,99.99
2019-03-19T01:17:56.979Z,99.99
2019-03-19T01:18:56.842Z,99.99
2019-03-19T01:19:56.821Z,99.99
2019-03-19T01:20:56.679Z,99.99
2019-03-19T01:21:56.598Z,99.99
2019-03-19T01:22:56.487Z,99.99
2019-03-19T01:23:56.505Z,99.99
2019-03-19T01:24:56.324Z,99.99
2019-03-19T01:25:56.288Z,99.99
2019-03-19T01:26:56.223Z,99.99
2019-03-19T01:27:56.051Z,99.99
2019-03-19T01:28:55.956Z,99.99
2019-03-19T01:29:55.964Z,99.99
2019-03-19T01:30:55.780Z,99.99
2019-03-19T01:31:55.742Z,99.99
2019-03-19T01:32:55.600Z,99.99
2019-03-19T01:33:55.549Z,99.99
2019-03-19T01:34:55.436Z,99.99
2019-03-19T01:35:55.362Z,99.99
2019-03-19T01:36:55.250Z,99.99
2019-03-19T01:37:55.173Z,99.99
2019-03-19T01:38:55.064Z,99.99
2019-03-19T01:39:54.993Z,99.99
2019-03-19T01:40:54.984Z,99.99
2019-03-19T01:41:54.802Z,99.99
2019-03-19T01:42:54.710Z,99.99
2019-03-19T01:43:54.699Z,99.99
2019-03-19T01:44:54.547Z,99.99
2019-03-19T01:45:54.450Z,99.99
2019-03-19T01:46:54.411Z,99.99
2019-03-19T01:47:54.270Z,99.99
2019-03-19T01:48:54.179Z,99.99
2019-03-19T01:49:54.158Z,99.99
2019-03-19T01:50:54.000Z,99.99
2019-03-19T01:51:53.935Z,99.99
2019-03-19T01:52:53.825Z,99.99
2019-03-19T01:53:53.852Z,99.99
2019-03-19T01:54:53.661Z,99.99
2019-03-19T01:56:01.152Z,99.99
2019-03-19T01:56:53.469Z,99.99
2019-03-19T01:57:53.466Z,99.99
2019-03-19T01:58:53.289Z,99.99
2019-03-19T01:59:53.214Z,99.99
2019-03-19T02:00:53.183Z,99.99
2019-03-19T02:01:53.023Z,99.99
2019-03-19T02:02:52.937Z,99.99
2019-03-19T02:03:52.891Z,99.99
2019-03-19T02:04:52.772Z,99.99
2019-03-19T02:05:52.672Z,99.99
2019-03-19T02:06:52.604Z,99.99
2019-03-19T02:07:52.489Z,99.99
2019-03-19T02:08:52.400Z,99.99
2019-03-19T02:09:52.336Z,99.99
2019-03-19T02:10:52.249Z,99.99
2019-03-19T02:11:52.233Z,99.99
2019-03-19T02:12:52.097Z,99.99
2019-03-19T02:13:52.044Z,99.99
2019-03-19T02:14:51.879Z,99.99
2019-03-19T02:15:51.854Z,99.99
2019-03-19T02:16:51.691Z,99.99
2019-03-19T02:17:51.663Z,99.99
2019-03-19T02:18:51.512Z,99.99
2019-03-19T02:19:51.499Z,99.99
2019-03-19T02:20:51.333Z,99.99
2019-03-19T02:21:51.244Z,99.99
2019-03-19T02:22:51.181Z,99.99
2019-03-19T02:23:51.076Z,99.99
2019-03-19T02:24:50.993Z,99.99
2019-03-19T02:25:50.932Z,99.99
2019-03-19T02:26:50.804Z,99.99
2019-03-19T02:27:50.813Z,99.99
2019-03-19T02:28:50.621Z,99.99
2019-03-19T02:29:51.640Z,99.99
2019-03-19T02:30:50.462Z,99.99
2019-03-19T02:31:50.426Z,99.99
2019-03-19T02:32:50.267Z,99.99
2019-03-19T02:33:50.248Z,99.99
2019-03-19T02:34:50.089Z,99.99
2019-03-19T02:35:50.023Z,99.99
2019-03-19T02:36:49.911Z,99.99
2019-03-19T02:37:49.852Z,99.99
2019-03-19T02:38:49.734Z,99.99
2019-03-19T02:39:49.659Z,99.99
2019-03-19T02:40:49.575Z,99.99
2019-03-19T02:41:49.467Z,99.99
2019-03-19T02:42:49.478Z,99.99
2019-03-19T02:43:49.289Z,99.99
2019-03-19T02:44:49.213Z,99.99
2019-03-19T02:45:49.219Z,99.99
2019-03-19T02:46:49.018Z,99.99
2019-03-19T02:47:48.999Z,99.99
2019-03-19T02:48:48.847Z,99.99
2019-03-19T02:49:48.808Z,99.99
2019-03-19T02:50:48.678Z,99.99
2019-03-19T02:51:48.620Z,99.99
2019-03-19T02:52:48.484Z,99.99
2019-03-19T02:53:48.429Z,99.99
2019-03-19T02:54:48.312Z,99.99
2019-03-19T02:55:48.271Z,99.99
2019-03-19T02:56:48.130Z,99.99
2019-03-19T02:57:48.154Z,99.99
2019-03-19T02:58:47.951Z,99.99
2019-03-19T02:59:47.960Z,99.99
2019-03-19T03:00:47.800Z,99.99
2019-03-19T03:01:47.691Z,99.99
2019-03-19T03:02:47.674Z,99.99
2019-03-19T03:03:47.509Z,99.99
2019-03-19T03:04:47.416Z,99.99
2019-03-19T03:05:47.421Z,99.99
2019-03-19T03:06:47.236Z,99.99
2019-03-19T03:07:47.177Z,99.99
2019-03-19T03:08:47.104Z,99.99
2019-03-19T03:09:46.972Z,99.99
2019-03-19T03:10:46.909Z,99.99
2019-03-19T03:11:46.807Z,99.99
2019-03-19T03:12:46.707Z,99.99
2019-03-19T03:13:46.637Z,99.99
2019-03-19T03:14:46.648Z,99.99
2019-03-19T03:15:46.450Z,99.99
2019-03-19T03:16:46.353Z,99.99
2019-03-19T03:17:46.340Z,99.99
2019-03-19T03:18:46.173Z,99.99
2019-03-19T03:19:46.080Z,99.99
2019-03-19T03:20:46.178Z,99.99
2019-03-19T03:21:45.905Z,99.99
2019-03-19T03:22:45.816Z,99.99
2019-03-19T03:23:45.767Z,99.99
2019-03-19T03:24:45.639Z,99.99
2019-03-19T03:25:45.564Z,99.99
2019-03-19T03:26:48.184Z,99.99
2019-03-19T03:27:45.375Z,99.99
2019-03-19T03:28:45.284Z,99.99
2019-03-19T03:29:45.294Z,99.99
2019-03-19T03:30:45.117Z,99.99
2019-03-19T03:31:45.009Z,99.99
2019-03-19T03:32:45.024Z,99.99
2019-03-19T03:33:44.837Z,99.99
2019-03-19T03:34:44.819Z,99.99
2019-03-19T03:35:44.665Z,99.99
2019-03-19T03:36:44.627Z,99.99
2019-03-19T03:37:44.474Z,99.99
2019-03-19T03:38:44.435Z,99.99
2019-03-19T03:39:44.297Z,99.99
2019-03-19T03:40:44.228Z,99.99
2019-03-19T03:41:44.151Z,99.99
2019-03-19T03:42:44.032Z,99.99
2019-03-19T03:43:43.945Z,99.99
2019-03-19T03:44:43.966Z,99.99
2019-03-19T03:45:43.779Z,99.99
2019-03-19T03:46:43.674Z,99.99
2019-03-19T03:47:43.681Z,99.99
2019-03-19T03:48:43.494Z,99.99
2019-03-19T03:49:43.408Z,99.99
2019-03-19T03:50:43.422Z,99.99
2019-03-19T03:51:43.223Z,99.99
2019-03-19T03:52:43.143Z,99.99
2019-03-19T03:53:45.154Z,99.99
2019-03-19T03:54:42.956Z,99.99
2019-03-19T03:55:42.887Z,99.99
2019-03-19T03:56:42.825Z,99.99
2019-03-19T03:57:42.725Z,99.99
2019-03-19T03:58:42.608Z,99.99
2019-03-19T03:59:42.511Z,99.99
2019-03-19T04:00:42.447Z,99.99
2019-03-19T04:01:42.371Z,99.99
2019-03-19T04:02:44.848Z,99.99
2019-03-19T04:03:42.260Z,99.99
2019-03-19T04:04:42.067Z,99.99
2019-03-19T04:05:41.992Z,99.99
2019-03-19T04:06:41.967Z,99.99
2019-03-19T04:07:41.806Z,99.99
2019-03-19T04:08:41.717Z,99.99
2019-03-19T04:09:41.681Z,99.99
2019-03-19T04:10:41.543Z,99.99
2019-03-19T04:11:41.436Z,99.99
2019-03-19T04:12:41.395Z,99.99
2019-03-19T04:13:41.272Z,99.99
2019-03-19T04:14:41.170Z,99.99
2019-03-19T04:15:41.146Z,99.99
2019-03-19T04:16:40.992Z,99.99
2019-03-19T04:17:40.904Z,99.99
2019-03-19T04:18:40.925Z,99.99
2019-03-19T04:19:40.729Z,99.99
2019-03-19T04:20:40.663Z,99.99
2019-03-19T04:21:41.556Z,99.99
2019-03-19T04:22:40.460Z,99.99
2019-03-19T04:23:40.373Z,99.99
2019-03-19T04:24:40.353Z,99.99
2019-03-19T04:25:40.189Z,99.99
2019-03-19T04:26:40.113Z,99.99
2019-03-19T04:27:42.113Z,99.99
2019-03-19T04:28:39.917Z,99.99
2019-03-19T04:29:39.837Z,99.99
2019-03-19T04:30:39.825Z,99.99
2019-03-19T04:31:39.670Z,99.99
2019-03-19T04:32:39.570Z,99.99
2019-03-19T04:33:39.491Z,99.99
2019-03-19T04:34:39.385Z,99.99
2019-03-19T04:35:41.979Z,99.99
2019-03-19T04:36:39.401Z,99.99
2019-03-19T04:37:39.121Z,99.99
2019-03-19T04:38:48.026Z,99.99
2019-03-19T04:39:38.942Z,99.99
2019-03-19T04:40:38.849Z,99.99
2019-03-19T04:41:38.867Z,99.99
2019-03-19T04:42:38.699Z,99.99
2019-03-19T04:43:38.582Z,99.99
2019-03-19T04:44:40.523Z,99.99
2019-03-19T04:45:38.411Z,99.99
2019-03-19T04:46:38.331Z,99.99
2019-03-19T04:47:38.259Z,99.99
2019-03-19T04:48:38.136Z,99.99
2019-03-19T04:49:45.033Z,99.99
2019-03-19T04:50:37.994Z,99.99
2019-03-19T04:51:37.909Z,99.99
2019-03-19T04:52:37.776Z,99.99
2019-03-19T04:53:37.685Z,99.99
2019-03-19T04:54:37.691Z,99.99
2019-03-19T04:55:37.514Z,99.99
2019-03-19T04:56:37.430Z,99.99
2019-03-19T04:57:37.406Z,99.99
2019-03-19T04:58:37.238Z,99.99
2019-03-19T04:59:37.158Z,99.99
2019-03-19T05:00:37.121Z,99.99
2019-03-19T05:01:36.981Z,99.99
2019-03-19T05:02:36.880Z,99.99
2019-03-19T05:03:36.855Z,99.99
2019-03-19T05:04:36.705Z,99.99
2019-03-19T05:05:36.641Z,99.99
2019-03-19T05:06:36.544Z,99.99
2019-03-19T05:07:36.439Z,99.99
2019-03-19T05:08:36.345Z,99.99
2019-03-19T05:09:36.361Z,99.99
2019-03-19T05:10:36.169Z,99.99
2019-03-19T05:11:36.096Z,99.99
2019-03-19T05:12:36.923Z,99.99
2019-03-19T05:13:35.994Z,99.99
2019-03-19T05:14:35.804Z,99.99
2019-03-19T05:15:35.716Z,99.99
2019-03-19T05:16:35.726Z,99.99
2019-03-19T05:17:35.616Z,99.99
2019-03-19T05:18:35.454Z,99.99
2019-03-19T05:19:35.416Z,99.99
2019-03-19T05:20:35.273Z,99.99
2019-03-19T05:21:35.212Z,99.99
2019-03-19T05:22:35.090Z,99.99
2019-03-19T05:23:35.195Z,99.99
2019-03-19T05:24:34.915Z,99.99
2019-03-19T05:25:34.998Z,99.99
2019-03-19T05:26:34.753Z,99.99
2019-03-19T05:27:37.531Z,99.99
2019-03-19T05:28:34.616Z,99.99
2019-03-19T05:29:34.469Z,99.99
2019-03-19T05:30:34.374Z,99.99
2019-03-19T05:31:34.399Z,99.99
2019-03-19T05:32:34.196Z,99.99
2019-03-19T05:33:34.105Z,99.99
2019-03-19T05:34:34.040Z,99.99
2019-03-19T05:35:33.939Z,99.99
2019-03-19T05:36:33.882Z,99.99
2019-03-19T05:37:33.756Z,99.99
2019-03-19T05:38:33.711Z,99.99
2019-03-19T05:39:33.568Z,99.99
2019-03-19T05:40:33.495Z,99.99
2019-03-19T05:41:33.406Z,99.99
2019-03-19T05:42:33.318Z,99.99
2019-03-19T05:43:33.209Z,99.99
2019-03-19T05:44:33.126Z,99.99
2019-03-19T05:45:33.033Z,99.99
2019-03-19T05:46:32.971Z,99.99
2019-03-19T05:47:36.980Z,99.99
2019-03-19T05:48:32.765Z,99.99
2019-03-19T05:49:32.680Z,99.99
2019-03-19T05:50:32.598Z,99.99
2019-03-19T05:51:32.654Z,99.99
2019-03-19T05:52:34.369Z,99.99
2019-03-19T05:53:47.068Z,99.99
2019-03-19T05:54:32.225Z,99.99
2019-03-19T05:55:32.335Z,99.99
2019-03-19T05:56:32.053Z,99.99
2019-03-19T05:57:32.178Z,99.99
2019-03-19T05:58:31.872Z,99.99
2019-03-19T05:59:31.791Z,99.99
2019-03-19T06:00:31.765Z,99.99
2019-03-19T06:01:31.627Z,99.99
2019-03-19T06:02:31.522Z,99.99
2019-03-19T06:03:31.437Z,99.99
2019-03-19T06:04:31.446Z,99.99
2019-03-19T06:05:31.239Z,99.99
2019-03-19T06:06:31.159Z,99.99
2019-03-19T06:07:31.190Z,99.99
2019-03-19T06:08:30.976Z,99.99
2019-03-19T06:09:30.971Z,99.99
2019-03-19T06:10:30.801Z,99.99
2019-03-19T06:11:30.780Z,99.99
2019-03-19T06:12:30.631Z,99.99
2019-03-19T06:13:32.640Z,99.99
2019-03-19T06:14:30.437Z,99.99
2019-03-19T06:15:30.397Z,99.99
2019-03-19T06:16:30.259Z,99.99
2019-03-19T06:17:30.241Z,99.99
2019-03-19T06:18:35.175Z,99.99
2019-03-19T06:19:29.992Z,99.99
2019-03-19T06:20:29.921Z,99.99
2019-03-19T06:21:29.809Z,99.99
2019-03-19T06:22:29.746Z,99.99
2019-03-19T06:23:29.741Z,99.99
2019-03-19T06:24:29.556Z,99.99
2019-03-19T06:25:31.491Z,99.99
2019-03-19T06:26:29.374Z,99.99
2019-03-19T06:27:29.390Z,99.99
2019-03-19T06:28:29.192Z,99.99
2019-03-19T06:29:29.105Z,99.99
2019-03-19T06:30:29.020Z,99.99
2019-03-19T06:31:28.925Z,99.99
2019-03-19T06:32:28.848Z,99.99
2019-03-19T06:33:28.901Z,99.99
2019-03-19T06:34:28.659Z,99.99
2019-03-19T06:35:28.567Z,99.99
2019-03-19T06:36:28.508Z,99.99
2019-03-19T06:37:28.409Z,99.99
2019-03-19T06:38:28.304Z,99.99
2019-03-19T06:39:28.221Z,99.99
2019-03-19T06:40:28.127Z,99.99
2019-03-19T06:41:28.036Z,99.99
2019-03-19T06:42:27.976Z,99.99
2019-03-19T06:43:27.863Z,99.99
2019-03-19T06:44:27.796Z,99.99
2019-03-19T06:45:27.693Z,99.99
2019-03-19T06:46:27.598Z,99.99
2019-03-19T06:47:27.531Z,99.99
2019-03-19T06:48:27.433Z,99.99
2019-03-19T06:49:27.330Z,99.99
2019-03-19T06:50:28.181Z,99.99
2019-03-19T06:51:27.158Z,99.99
2019-03-19T06:52:27.109Z,99.99
2019-03-19T06:53:26.993Z,99.99
2019-03-19T06:54:26.915Z,99.99
2019-03-19T06:55:26.818Z,99.99
2019-03-19T06:56:26.729Z,99.99
2019-03-19T06:57:26.669Z,99.99
2019-03-19T06:58:26.559Z,99.99
2019-03-19T06:59:26.468Z,99.99
2019-03-19T07:00:26.389Z,99.99
2019-03-19T07:01:26.298Z,99.99
2019-03-19T07:02:26.262Z,99.99
2019-03-19T07:03:26.137Z,99.99
2019-03-19T07:04:26.053Z,99.99
2019-03-19T07:05:25.958Z,99.99
2019-03-19T07:06:25.881Z,99.99
2019-03-19T07:07:25.794Z,99.99
2019-03-19T07:08:25.719Z,99.99
2019-03-19T07:09:25.638Z,99.99
2019-03-19T07:10:25.577Z,99.99
2019-03-19T07:11:25.452Z,99.99
2019-03-19T07:12:25.375Z,99.99
2019-03-19T07:13:25.300Z,99.99
2019-03-19T07:14:25.200Z,99.99
2019-03-19T07:15:25.125Z,99.99
2019-03-19T07:16:25.042Z,99.99
2019-03-19T07:17:24.953Z,99.99
2019-03-19T07:18:24.888Z,99.99
2019-03-19T07:19:24.786Z,99.99
2019-03-19T07:20:24.757Z,99.99
2019-03-19T07:21:24.620Z,99.99
2019-03-19T07:22:24.530Z,99.99
2019-03-19T07:23:24.473Z,99.99
2019-03-19T07:24:24.370Z,99.99
2019-03-19T07:25:24.291Z,99.99
2019-03-19T07:26:24.200Z,99.99
2019-03-19T07:27:24.123Z,99.99
2019-03-19T07:28:24.047Z,99.99
2019-03-19T07:29:23.949Z,99.99
2019-03-19T07:30:23.875Z,99.99
2019-03-19T07:31:30.906Z,99.99
2019-03-19T07:32:23.710Z,99.99
2019-03-19T07:33:23.637Z,99.99
2019-03-19T07:34:23.541Z,99.99
2019-03-19T07:35:23.473Z,99.99
2019-03-19T07:36:23.375Z,99.99
2019-03-19T07:37:23.294Z,99.99
2019-03-19T07:38:23.231Z,99.99
2019-03-19T07:39:23.125Z,99.99
2019-03-19T07:40:23.059Z,99.99
2019-03-19T07:41:22.966Z,99.99
2019-03-19T07:42:22.883Z,99.99
2019-03-19T07:43:23.821Z,99.99
2019-03-19T07:44:22.722Z,99.99
2019-03-19T07:45:22.634Z,99.99
2019-03-19T07:46:22.556Z,99.99
2019-03-19T07:47:22.477Z,99.99
2019-03-19T07:48:22.428Z,99.99
2019-03-19T07:49:22.320Z,99.99
2019-03-19T07:50:22.233Z,99.99
2019-03-19T07:51:22.154Z,99.99
2019-03-19T07:52:22.066Z,99.99
2019-03-19T07:53:22.000Z,98.88
2019-03-19T07:54:21.914Z,98.69
2019-03-19T07:55:21.836Z,98.64
2019-03-19T07:56:21.750Z,98.07
2019-03-19T07:57:21.661Z,98.45
2019-03-19T07:58:32.644Z,97.88
2019-03-19T07:59:21.505Z,97.22
2019-03-19T08:00:21.433Z,97.31
2019-03-19T08:01:21.351Z,96.79
2019-03-19T08:02:21.272Z,96.31
2019-03-19T08:03:21.200Z,95.75
2019-03-19T08:04:21.168Z,96.12
2019-03-19T08:05:21.024Z,95.65
2019-03-19T08:06:20.943Z,95.08
2019-03-19T08:07:20.866Z,95.56
2019-03-19T08:08:20.802Z,95.17
2019-03-19T08:09:20.721Z,95.36
2019-03-19T08:10:20.619Z,94.22
2019-03-19T08:11:20.547Z,94.42
2019-03-19T08:12:20.461Z,94.13
2019-03-19T08:13:20.397Z,93.98
2019-03-19T08:14:20.305Z,93.41
2019-03-19T08:15:20.226Z,93.04
2019-03-19T08:16:27.395Z,92.94
2019-03-19T08:17:20.081Z,92.75
2019-03-19T08:18:20.006Z,91.89
2019-03-19T08:19:19.955Z,91.89
2019-03-19T08:20:19.826Z,92.41
2019-03-19T08:21:19.750Z,92.99
2019-03-19T08:22:19.662Z,91.61
2019-03-19T08:23:19.599Z,91.27
2019-03-19T08:24:19.507Z,91.84
2019-03-19T08:25:19.431Z,91.75
2019-03-19T08:26:19.358Z,91.27
2019-03-19T08:27:19.274Z,90.80
2019-03-19T08:28:19.209Z,90.42
2019-03-19T08:29:19.126Z,89.94
2019-03-19T08:30:19.033Z,90.03
2019-03-19T08:31:18.949Z,89.94
2019-03-19T08:32:18.890Z,89.37
2019-03-19T08:33:18.812Z,88.89
2019-03-19T08:34:18.715Z,88.89
2019-03-19T08:35:18.639Z,89.37
2019-03-19T08:36:18.560Z,89.47
2019-03-19T08:37:18.475Z,89.61
2019-03-19T08:38:18.399Z,89.03
2019-03-19T08:39:18.335Z,89.79
2019-03-19T08:40:18.236Z,87.13
2019-03-19T08:41:18.168Z,87.03
2019-03-19T08:42:18.078Z,87.32
2019-03-19T08:43:20.267Z,87.27
2019-03-19T08:44:27.265Z,87.07
2019-03-19T08:45:17.843Z,86.60
2019-03-19T08:46:17.765Z,86.88
2019-03-19T08:47:17.684Z,87.65
2019-03-19T08:48:17.608Z,86.74
2019-03-19T08:49:17.539Z,85.50
2019-03-19T08:50:17.452Z,83.97
2019-03-19T08:51:17.383Z,83.40
2019-03-19T08:52:17.294Z,84.36
2019-03-19T08:53:17.217Z,83.69
2019-03-19T08:54:17.149Z,83.97
2019-03-19T08:55:17.055Z,83.50
2019-03-19T08:56:16.986Z,82.45
2019-03-19T08:57:16.901Z,81.82
2019-03-19T08:58:16.832Z,81.63
2019-03-19T08:59:16.765Z,80.87
2019-03-19T09:00:17.938Z,81.15
2019-03-19T09:01:16.591Z,81.06
2019-03-19T09:02:16.527Z,80.30
2019-03-19T09:03:16.435Z,80.39
2019-03-19T09:04:16.368Z,80.39
2019-03-19T09:05:16.286Z,79.86
2019-03-19T09:06:16.205Z,79.00
2019-03-19T09:07:16.131Z,78.72
2019-03-19T09:08:16.046Z,79.00
2019-03-19T09:09:16.031Z,80.05
2019-03-19T09:10:15.894Z,79.10
2019-03-19T09:11:15.814Z,78.52
2019-03-19T09:12:15.742Z,77.19
2019-03-19T09:13:15.673Z,77.57
2019-03-19T09:14:15.597Z,77.00
2019-03-19T09:15:15.516Z,77.57
2019-03-19T09:16:15.433Z,78.23
2019-03-19T09:17:15.369Z,77.95
2019-03-19T09:18:16.186Z,79.00
2019-03-19T09:19:15.213Z,78.05
2019-03-19T09:20:15.128Z,77.95
2019-03-19T09:21:15.064Z,77.86
2019-03-19T09:22:15.192Z,78.05
2019-03-19T09:23:14.902Z,78.14
2019-03-19T09:24:14.834Z,77.86
2019-03-19T09:25:14.750Z,77.86
2019-03-19T09:26:14.670Z,77.38
2019-03-19T09:27:14.594Z,77.38
2019-03-19T09:28:14.583Z,77.28
2019-03-19T09:29:17.050Z,75.09
2019-03-19T09:30:14.358Z,75.98
2019-03-19T09:31:14.290Z,76.75
2019-03-19T09:32:14.212Z,76.18
2019-03-19T09:33:14.139Z,75.51
2019-03-19T09:34:14.072Z,76.08
2019-03-19T09:35:13.985Z,75.76
2019-03-19T09:36:13.899Z,75.95
2019-03-19T09:37:13.822Z,76.04
2019-03-19T09:38:13.760Z,74.99
2019-03-19T09:39:13.746Z,75.42
2019-03-19T09:40:13.594Z,76.18
2019-03-19T09:41:13.528Z,75.70
2019-03-19T09:42:13.447Z,74.55
2019-03-19T09:43:13.369Z,73.88
2019-03-19T09:44:13.314Z,72.45
2019-03-19T09:45:13.215Z,71.72
2019-03-19T09:46:13.132Z,72.30
2019-03-19T09:47:13.067Z,72.36
2019-03-19T09:48:12.990Z,71.98
2019-03-19T09:49:12.922Z,72.36
2019-03-19T09:50:12.858Z,73.85
2019-03-19T09:51:12.761Z,73.66
2019-03-19T09:52:12.683Z,75.18
2019-03-19T09:53:12.600Z,74.52
2019-03-19T09:54:12.546Z,72.89
2019-03-19T09:55:12.505Z,72.32
2019-03-19T09:56:12.412Z,72.55
2019-03-19T09:57:13.708Z,72.55
2019-03-19T09:58:12.232Z,72.07
2019-03-19T09:59:12.158Z,72.39
2019-03-19T10:00:12.067Z,72.49
2019-03-19T10:01:11.995Z,71.53
2019-03-19T10:02:11.914Z,71.34
2019-03-19T10:03:11.845Z,71.44
2019-03-19T10:04:11.776Z,69.72
2019-03-19T10:05:11.685Z,69.85
2019-03-19T10:06:14.373Z,70.23
2019-03-19T10:07:11.526Z,69.85
2019-03-19T10:08:11.458Z,71.47
2019-03-19T10:09:11.388Z,70.01
2019-03-19T10:10:11.306Z,69.72
2019-03-19T10:11:11.277Z,70.01
2019-03-19T10:12:11.151Z,71.63
2019-03-19T10:13:11.071Z,71.78
2019-03-19T10:14:11.029Z,72.01
2019-03-19T10:15:10.917Z,71.86
2019-03-19T10:16:10.841Z,68.61
2019-03-19T10:17:10.776Z,67.94
2019-03-19T10:18:10.688Z,67.75
2019-03-19T10:19:10.616Z,68.32
2019-03-19T10:20:10.553Z,66.99
2019-03-19T10:21:10.463Z,67.21
2019-03-19T10:22:10.393Z,68.32
2019-03-19T10:23:10.319Z,67.94
2019-03-19T10:24:10.243Z,68.04
2019-03-19T10:25:10.181Z,68.51
2019-03-19T10:26:10.079Z,67.65
2019-03-19T10:27:10.015Z,67.55
2019-03-19T10:28:09.927Z,68.90
2019-03-19T10:29:09.861Z,68.99
2019-03-19T10:30:09.786Z,69.70
2019-03-19T10:31:09.706Z,68.93
2019-03-19T10:32:09.638Z,68.45
2019-03-19T10:33:09.547Z,67.88
2019-03-19T10:34:09.486Z,67.59
2019-03-19T10:35:09.415Z,66.54
2019-03-19T10:36:09.322Z,66.67
2019-03-19T10:37:09.242Z,66.09
2019-03-19T10:38:09.174Z,66.35
2019-03-19T10:39:09.309Z,65.87
2019-03-19T10:40:09.031Z,66.09
2019-03-19T10:41:08.950Z,64.47
2019-03-19T10:42:08.866Z,64.18
2019-03-19T10:43:08.794Z,63.23
2019-03-19T10:44:08.722Z,63.60
2019-03-19T10:45:08.655Z,64.85
2019-03-19T10:46:08.564Z,64.66
2019-03-19T10:47:08.494Z,65.14
2019-03-19T10:48:08.419Z,64.56
2019-03-19T10:49:08.348Z,64.18
2019-03-19T10:50:08.277Z,64.05
2019-03-19T10:51:08.196Z,64.25
2019-03-19T10:52:08.114Z,64.91
2019-03-19T10:53:08.042Z,66.25
2019-03-19T10:54:07.962Z,65.68
2019-03-19T10:55:07.906Z,64.25
2019-03-19T10:56:07.809Z,65.42
2019-03-19T10:57:07.738Z,63.99
2019-03-19T10:58:11.273Z,63.42
2019-03-19T10:59:07.580Z,63.03
2019-03-19T11:00:07.520Z,63.42
2019-03-19T11:01:07.439Z,64.75
2019-03-19T11:02:07.358Z,64.25
2019-03-19T11:03:07.291Z,64.53
2019-03-19T11:04:07.205Z,64.34
2019-03-19T11:05:07.150Z,64.34
2019-03-19T11:06:07.053Z,63.76
2019-03-19T11:07:06.988Z,64.15
2019-03-19T11:08:06.917Z,64.37
2019-03-19T11:09:06.830Z,61.85
2019-03-19T11:10:06.771Z,62.90
2019-03-19T11:11:06.679Z,63.86
2019-03-19T11:12:06.602Z,63.60
2019-03-19T11:13:06.528Z,64.09
2019-03-19T11:14:06.450Z,64.95
2019-03-19T11:15:06.385Z,64.56
2019-03-19T11:16:06.301Z,63.80
2019-03-19T11:17:06.231Z,62.55
2019-03-19T11:18:06.144Z,62.65
2019-03-19T11:19:06.074Z,63.42
2019-03-19T11:20:06.008Z,63.96
2019-03-19T11:21:05.923Z,63.86
2019-03-19T11:22:05.843Z,63.57
2019-03-19T11:23:05.765Z,62.90
2019-03-19T11:24:05.701Z,63.48
2019-03-19T11:25:05.632Z,64.05
2019-03-19T11:26:05.542Z,63.67
2019-03-19T11:27:05.477Z,62.94
2019-03-19T11:28:05.386Z,61.41
2019-03-19T11:29:05.311Z,62.08
2019-03-19T11:30:06.595Z,61.82
2019-03-19T11:31:05.164Z,61.05
2019-03-19T11:32:05.085Z,60.67
2019-03-19T11:33:05.026Z,60.29
2019-03-19T11:34:04.928Z,61.54
2019-03-19T11:35:04.878Z,61.44
2019-03-19T11:36:04.789Z,62.11
2019-03-19T11:37:04.706Z,62.77
2019-03-19T11:38:04.627Z,60.38
2019-03-19T11:39:04.564Z,60.77
2019-03-19T11:40:04.475Z,59.88
2019-03-19T11:41:04.415Z,60.29
2019-03-19T11:42:04.332Z,60.77
2019-03-19T11:43:04.248Z,61.05
2019-03-19T11:44:04.174Z,61.82
2019-03-19T11:45:04.100Z,61.44
2019-03-19T11:46:04.039Z,62.11
2019-03-19T11:47:03.955Z,62.11
2019-03-19T11:48:03.876Z,61.79
2019-03-19T11:49:03.818Z,61.79
2019-03-19T11:50:03.725Z,61.12
2019-03-19T11:51:03.690Z,60.58
2019-03-19T11:52:03.580Z,61.25
2019-03-19T11:53:03.522Z,61.15
2019-03-19T11:54:03.431Z,61.82
2019-03-19T11:55:03.336Z,62.20
2019-03-19T11:56:03.273Z,61.82
2019-03-19T11:57:04.039Z,60.77
2019-03-19T11:58:03.112Z,61.91
2019-03-19T11:59:03.048Z,61.25
2019-03-19T12:00:11.035Z,61.15
2019-03-19T12:01:02.905Z,60.86
2019-03-19T12:02:02.813Z,61.72
2019-03-19T12:03:11.421Z,61.08
2019-03-19T12:04:02.654Z,61.08
2019-03-19T12:05:02.581Z,60.38
2019-03-19T12:06:02.517Z,61.63
2019-03-19T12:07:02.436Z,61.44
2019-03-19T12:08:02.372Z,61.34
2019-03-19T12:09:02.275Z,61.34
2019-03-19T12:10:02.205Z,60.96
2019-03-19T12:11:02.139Z,59.72
2019-03-19T12:12:02.060Z,59.43
2019-03-19T12:13:01.971Z,60.10
2019-03-19T12:14:01.900Z,60.00
2019-03-19T12:15:01.818Z,61.25
2019-03-19T12:16:01.775Z,60.00
2019-03-19T12:17:01.670Z,59.55
2019-03-19T12:18:01.604Z,58.12
2019-03-19T12:19:01.516Z,58.69
2019-03-19T12:20:01.452Z,59.17
2019-03-19T12:21:01.378Z,59.30
2019-03-19T12:22:01.303Z,58.91
2019-03-19T12:23:01.211Z,57.38
2019-03-19T12:24:01.146Z,57.99
2019-03-19T12:25:01.065Z,59.66
2019-03-19T12:26:01.004Z,60.13
2019-03-19T12:27:00.915Z,61.35
2019-03-19T12:28:00.831Z,62.18
2019-03-19T12:29:00.757Z,61.69
2019-03-19T12:30:00.681Z,62.30
2019-03-19T12:31:00.627Z,62.01
2019-03-19T12:32:00.528Z,61.76
2019-03-19T12:33:00.442Z,61.95
2019-03-19T12:34:00.371Z,61.31
2019-03-19T12:35:01.719Z,60.16
2019-03-19T12:36:00.456Z,59.81
2019-03-19T12:37:00.137Z,59.36
2019-03-19T12:38:00.052Z,57.86
2019-03-19T12:38:59.978Z,57.09
2019-03-19T12:39:59.904Z,56.99
2019-03-19T12:40:59.841Z,55.46
2019-03-19T12:41:59.743Z,55.11
2019-03-19T12:42:59.686Z,55.97
2019-03-19T12:43:59.598Z,55.58
2019-03-19T12:44:59.518Z,54.53
2019-03-19T12:45:59.520Z,54.72
2019-03-19T12:46:59.372Z,54.99
2019-03-19T12:47:59.283Z,56.26
2019-03-19T12:48:59.216Z,55.08
2019-03-19T12:49:59.132Z,55.85
2019-03-19T12:50:59.071Z,56.04